| time (UTC) | temp F | wind direction | speed MPH | gust MPH | rain 1hr in | rain 24hr in | rain mn in | humidity % | barometer mb |
| 20260831181649 | 82 | 264 | 2.0 | 2.0 | 0.00 | 1.00 | 1.00 | 78 | 1018.6 |
| 20260831181149 | 83 | 246 | 1.0 | 2.0 | 0.00 | 1.00 | 1.00 | 77 | 1018.6 |
| 20260831180644 | 84 | 243 | 3.0 | 4.0 | 0.00 | 1.00 | 1.00 | 74 | 1018.5 |
| 20260831180139 | 84 | 286 | 2.0 | 3.0 | 0.00 | 1.00 | 1.00 | 77 | 1018.5 |
| 20260831175634 | 83 | 265 | 2.0 | 3.0 | 0.00 | 1.00 | 1.00 | 79 | 1018.6 |
| 20260831175131 | 83 | 290 | 2.0 | 3.0 | 0.00 | 1.00 | 1.00 | 79 | 1018.6 |
| 20260831174631 | 83 | 253 | 3.0 | 3.0 | 0.00 | 1.00 | 1.00 | 77 | 1018.6 |
| 20260831174126 | 83 | 263 | 4.0 | 4.0 | 0.00 | 1.00 | 1.00 | 78 | 1018.9 |
| 20260831173624 | 83 | 246 | 2.0 | 3.0 | 0.00 | 1.00 | 1.00 | 77 | 1018.9 |
| 20260831173121 | 83 | 262 | 3.0 | 3.0 | 0.00 | 1.00 | 1.00 | 77 | 1018.8 |
| 20260831172620 | 82 | 263 | 1.0 | 2.0 | 0.00 | 1.00 | 1.00 | 82 | 1018.9 |
| 20260831172120 | 82 | 266 | 2.0 | 3.0 | 0.00 | 1.00 | 1.00 | 80 | 1019.0 |
| 20260831171615 | 81 | 255 | 3.0 | 3.0 | 0.00 | 1.00 | 1.00 | 80 | 1019.0 |
| 20260831171113 | 80 | 265 | 2.0 | 3.0 | 0.00 | 1.00 | 1.00 | 82 | 1018.8 |
| 20260831170609 | 80 | 254 | 3.0 | 4.0 | 0.00 | 1.00 | 1.00 | 79 | 1019.0 |
| 20260831170106 | 82 | 295 | 2.0 | 3.0 | 0.00 | 1.00 | 1.00 | 79 | 1019.0 |
| 20260831165601 | 81 | 263 | 3.0 | 3.0 | 0.00 | 1.00 | 1.00 | 79 | 1018.7 |
| 20260831165058 | 81 | 236 | 3.0 | 3.0 | 0.00 | 1.00 | 1.00 | 84 | 1018.8 |
| 20260831164553 | 81 | 216 | 2.0 | 4.0 | 0.00 | 1.00 | 1.00 | 81 | 1018.9 |
| 20260831164049 | 81 | 216 | 2.0 | 4.0 | 0.00 | 1.00 | 1.00 | 81 | 1018.9 |
| 20260831163543 | 81 | 270 | 3.0 | 3.0 | 0.00 | 1.00 | 1.00 | 81 | 1018.9 |
| 20260831163039 | 80 | 274 | 3.0 | 3.0 | 0.00 | 1.00 | 1.00 | 82 | 1018.7 |
| 20260831162538 | 81 | 312 | 2.0 | 2.0 | 0.00 | 1.00 | 1.00 | 83 | 1019.1 |
| 20260831162036 | 82 | 339 | 2.0 | 4.0 | 0.00 | 1.00 | 1.00 | 80 | 1019.0 |
| 20260831161533 | 82 | 275 | 2.0 | 4.0 | 0.00 | 1.00 | 1.00 | 81 | 1019.4 |
| 20260831161029 | 82 | 283 | 2.0 | 3.0 | 0.00 | 1.00 | 1.00 | 80 | 1019.2 |
| 20260831160528 | 82 | 250 | 2.0 | 3.0 | 0.00 | 1.00 | 1.00 | 77 | 1019.3 |
| 20260831160024 | 81 | 237 | 2.0 | 3.0 | 0.00 | 1.00 | 1.00 | 76 | 1019.4 |
| 20260831155518 | 81 | 267 | 3.0 | 4.0 | 0.00 | 1.00 | 1.00 | 78 | 1019.5 |
| 20260831155013 | 79 | 265 | 2.0 | 4.0 | 0.00 | 1.00 | 1.00 | 81 | 1019.5 |
| 20260831154509 | 80 | 231 | 3.0 | 4.0 | 0.00 | 1.00 | 1.00 | 79 | 1019.3 |
| 20260831154008 | 79 | 222 | 3.0 | 5.0 | 0.00 | 1.00 | 1.00 | 83 | 1019.1 |
| 20260831153503 | 80 | 217 | 5.0 | 5.0 | 0.00 | 1.00 | 1.00 | 82 | 1019.1 |
| 20260831153000 | 79 | 254 | 1.0 | 3.0 | 0.00 | 1.00 | 1.00 | 85 | 1019.3 |
| 20260831152455 | 78 | 243 | 3.0 | 3.0 | 0.00 | 1.00 | 1.00 | 86 | 1019.3 |
| 20260831151950 | 77 | 173 | 1.0 | 3.0 | 0.00 | 1.00 | 1.00 | 87 | 1019.5 |
| 20260831151449 | 77 | 274 | 2.0 | 4.0 | 0.00 | 1.00 | 1.00 | 87 | 1019.5 |
| 20260831150944 | 77 | 261 | 2.0 | 5.0 | 0.00 | 1.00 | 1.00 | 87 | 1019.4 |
| 20260831150440 | 76 | 180 | 1.0 | 4.0 | 0.00 | 1.00 | 1.00 | 88 | 1019.4 |
| 20260831145939 | 75 | 267 | 3.0 | 4.0 | 0.00 | 1.00 | 1.00 | 90 | 1019.5 |
| 20260831145435 | 73 | 243 | 2.0 | 3.0 | 0.00 | 1.00 | 1.00 | 99 | 1019.5 |
| 20260831144931 | 73 | 250 | 2.0 | 3.0 | 0.00 | 1.00 | 1.00 | 99 | 1019.7 |
| 20260831144426 | 72 | 267 | 3.0 | 3.0 | 0.00 | 1.00 | 1.00 | 99 | 1019.5 |
| 20260831143921 | 72 | 257 | 3.0 | 4.0 | 0.00 | 1.00 | 1.00 | 99 | 1019.6 |
| 20260831143416 | 71 | 265 | 2.0 | 3.0 | 0.00 | 1.00 | 1.00 | 99 | 1019.7 |
| 20260831142912 | 72 | 264 | 1.0 | 3.0 | 0.00 | 1.00 | 1.00 | 99 | 1019.6 |
| 20260831142408 | 71 | 257 | 2.0 | 5.0 | 0.00 | 1.00 | 1.00 | 99 | 1019.8 |
| 20260831141902 | 71 | 270 | 2.0 | 5.0 | 0.00 | 1.00 | 1.00 | 99 | 1019.8 |
| 20260831141356 | 71 | 293 | 2.0 | 3.0 | 0.00 | 1.00 | 1.00 | 99 | 1019.5 |
| 20260831140851 | 72 | 301 | 2.0 | 3.0 | 0.00 | 1.00 | 1.00 | 99 | 1019.7 |
| 20260831140345 | 71 | 279 | 2.0 | 3.0 | 0.00 | 1.00 | 1.00 | 99 | 1020.0 |
| 20260831135844 | 71 | 235 | 3.0 | 4.0 | 0.00 | 1.00 | 1.00 | 99 | 1019.5 |
| 20260831135339 | 71 | 300 | 2.0 | 3.0 | 0.00 | 1.00 | 1.00 | 99 | 1019.4 |
| 20260831134834 | 71 | 300 | 2.0 | 3.0 | 0.00 | 1.00 | 1.00 | 99 | 1019.5 |
| 20260831134331 | 71 | 270 | 0.0 | 1.0 | 0.00 | 1.00 | 1.00 | 99 | 1019.5 |
| 20260831133830 | 70 | 265 | 2.0 | 2.0 | 0.00 | 1.00 | 1.00 | 99 | 1019.6 |
| 20260831133330 | 70 | 265 | 2.0 | 2.0 | 0.00 | 1.00 | 1.00 | 99 | 1020.0 |
| 20260831132825 | 70 | 265 | 2.0 | 2.0 | 0.00 | 1.00 | 1.00 | 99 | 1019.7 |
| 20260831132320 | 70 | 265 | 2.0 | 2.0 | 0.00 | 1.00 | 1.00 | 99 | 1019.7 |
| 20260831131815 | 70 | 265 | 2.0 | 2.0 | 0.00 | 1.00 | 1.00 | 99 | 1019.5 |
| 20260831131311 | 70 | 201 | 0.0 | 0.0 | 0.00 | 1.00 | 1.00 | 99 | 1019.5 |
| 20260831130805 | 70 | 197 | 0.0 | 0.0 | 0.00 | 1.00 | 1.00 | 99 | 1019.3 |
| 20260831130301 | 70 | 198 | 0.0 | 0.0 | 0.00 | 1.00 | 1.00 | 99 | 1019.4 |
| 20260831125800 | 70 | 194 | 0.0 | 0.0 | 0.00 | 1.00 | 1.00 | 99 | 1019.4 |
| 20260831125256 | 70 | 193 | 0.0 | 0.0 | 0.00 | 1.00 | 1.00 | 99 | 1019.4 |
| 20260831124750 | 70 | 194 | 0.0 | 0.0 | 0.02 | 1.00 | 1.00 | 99 | 1019.5 |
| 20260831124247 | 70 | 194 | 0.0 | 0.0 | 0.02 | 1.00 | 1.00 | 99 | 1019.5 |
| 20260831123746 | 70 | 194 | 0.0 | 0.0 | 0.00 | 0.99 | 0.99 | 99 | 1019.6 |
| 20260831123245 | 70 | 196 | 0.0 | 0.0 | 0.00 | 0.99 | 0.99 | 99 | 1019.8 |
| 20260831122745 | 70 | 201 | 0.0 | 0.0 | 0.00 | 0.99 | 0.99 | 99 | 1019.6 |
| 20260831122241 | 70 | 201 | 0.0 | 0.0 | 0.00 | 0.99 | 0.99 | 99 | 1019.8 |
| 20260831121740 | 70 | 198 | 0.0 | 0.0 | 0.00 | 0.99 | 0.99 | 99 | 1019.6 |
| 20260831121237 | 71 | 195 | 0.0 | 0.0 | 0.00 | 0.99 | 0.99 | 99 | 1019.6 |
| 20260831120732 | 71 | 195 | 0.0 | 0.0 | 0.00 | 0.99 | 0.99 | 99 | 1019.5 |
| 20260831120227 | 70 | 195 | 0.0 | 0.0 | 0.00 | 0.99 | 0.99 | 99 | 1019.5 |
| 20260831115722 | 70 | 195 | 0.0 | 0.0 | 0.00 | 0.99 | 0.99 | 99 | 1019.3 |
| 20260831115219 | 70 | 195 | 0.0 | 0.0 | 0.00 | 0.99 | 0.99 | 99 | 1019.5 |
| 20260831114717 | 70 | 195 | 0.0 | 0.0 | 0.00 | 0.99 | 0.99 | 99 | 1019.3 |
| 20260831114217 | 70 | 195 | 0.0 | 0.0 | 0.00 | 0.99 | 0.99 | 99 | 1019.2 |
| 20260831113713 | 69 | 259 | 3.0 | 3.0 | 0.00 | 0.99 | 0.99 | 99 | 1019.2 |
| 20260831113207 | 69 | 259 | 3.0 | 3.0 | 0.00 | 0.99 | 0.99 | 99 | 1019.5 |
| 20260831112706 | 69 | 259 | 3.0 | 3.0 | 0.00 | 0.99 | 0.99 | 99 | 1019.3 |
| 20260831112202 | 69 | 259 | 3.0 | 3.0 | 0.00 | 0.99 | 0.99 | 99 | 1019.4 |
| 20260831111657 | 69 | 259 | 3.0 | 3.0 | 0.00 | 0.99 | 0.99 | 99 | 1019.3 |
| 20260831111154 | 69 | 259 | 3.0 | 3.0 | 0.00 | 0.99 | 0.99 | 99 | 1019.0 |
| 20260831110649 | 69 | 259 | 3.0 | 3.0 | 0.00 | 0.99 | 0.99 | 99 | 1018.8 |
| 20260831110144 | 69 | 259 | 3.0 | 3.0 | 0.00 | 0.99 | 0.99 | 99 | 1018.8 |
| 20260831105643 | 69 | 259 | 3.0 | 3.0 | 0.00 | 0.99 | 0.99 | 99 | 1018.8 |
| 20260831105138 | 69 | 259 | 3.0 | 3.0 | 0.00 | 0.99 | 0.99 | 99 | 1018.7 |
| 20260831104633 | 69 | 259 | 3.0 | 3.0 | 0.00 | 0.99 | 0.99 | 99 | 1018.6 |
| 20260831104130 | 69 | 259 | 3.0 | 3.0 | 0.00 | 0.99 | 0.99 | 99 | 1018.7 |
| 20260831103625 | 69 | 255 | 3.0 | 3.0 | 0.00 | 0.99 | 0.99 | 99 | 1018.6 |
| 20260831103121 | 69 | 255 | 3.0 | 3.0 | 0.00 | 0.99 | 0.99 | 99 | 1018.5 |
| 20260831102620 | 69 | 255 | 3.0 | 3.0 | 0.00 | 0.99 | 0.99 | 99 | 1018.4 |
| 20260831102115 | 69 | 255 | 3.0 | 3.0 | 0.00 | 0.99 | 0.99 | 99 | 1018.5 |
| 20260831101615 | 69 | 255 | 3.0 | 3.0 | 0.00 | 0.99 | 0.99 | 99 | 1018.6 |
| 20260831101111 | 69 | 254 | 2.0 | 2.0 | 0.00 | 0.99 | 0.99 | 99 | 1018.8 |
| 20260831100607 | 69 | 244 | 3.0 | 3.0 | 0.00 | 0.99 | 0.99 | 99 | 1018.6 |
| 20260831100103 | 69 | 251 | 2.0 | 2.0 | 0.00 | 0.99 | 0.99 | 99 | 1018.5 |
| 20260831095601 | 69 | 251 | 2.0 | 2.0 | 0.00 | 0.99 | 0.99 | 99 | 1018.3 |
| 20260831095056 | 69 | 255 | 1.0 | 2.0 | 0.00 | 0.99 | 0.99 | 99 | 1018.6 |
| 20260831094552 | 69 | 261 | 0.0 | 2.0 | 0.00 | 0.99 | 0.99 | 99 | 1018.3 |
| 20260831094043 | 68 | 270 | 1.0 | 2.0 | 0.00 | 0.99 | 0.99 | 99 | 1018.3 |
| 20260831093543 | 68 | 270 | 1.0 | 2.0 | 0.00 | 0.99 | 0.99 | 99 | 1018.3 |
| 20260831093039 | 68 | 270 | 1.0 | 2.0 | 0.00 | 0.99 | 0.99 | 99 | 1018.1 |
| 20260831092535 | 68 | 270 | 0.0 | 2.0 | 0.00 | 0.99 | 0.99 | 99 | 1017.9 |
| 20260831092031 | 69 | 270 | 2.0 | 2.0 | 0.00 | 0.99 | 0.99 | 99 | 1017.9 |
| 20260831091530 | 69 | 246 | 2.0 | 2.0 | 0.00 | 0.99 | 0.99 | 99 | 1017.9 |
| 20260831091026 | 69 | 246 | 2.0 | 2.0 | 0.00 | 0.99 | 0.99 | 99 | 1017.9 |
| 20260831090521 | 69 | 246 | 2.0 | 2.0 | 0.00 | 0.99 | 0.99 | 99 | 1017.9 |
| 20260831090017 | 69 | 246 | 2.0 | 2.0 | 0.00 | 0.99 | 0.99 | 99 | 1017.7 |
| 20260831085512 | 69 | 255 | 2.0 | 2.0 | 0.00 | 0.99 | 0.99 | 99 | 1018.0 |
| 20260831085007 | 69 | 259 | 3.0 | 3.0 | 0.00 | 0.99 | 0.99 | 99 | 1017.9 |
| 20260831084503 | 69 | 257 | 2.0 | 3.0 | 0.00 | 0.99 | 0.99 | 99 | 1017.9 |
| 20260831084000 | 70 | 281 | 2.0 | 2.0 | 0.00 | 0.99 | 0.99 | 99 | 1017.7 |
| 20260831083459 | 70 | 281 | 2.0 | 2.0 | 0.00 | 0.99 | 0.99 | 99 | 1018.0 |
| 20260831082954 | 70 | 281 | 2.0 | 2.0 | 0.00 | 0.99 | 0.99 | 99 | 1017.8 |
| 20260831082453 | 70 | 281 | 2.0 | 2.0 | 0.00 | 0.99 | 0.99 | 99 | 1017.7 |
| 20260831081948 | 70 | 281 | 2.0 | 2.0 | 0.00 | 0.99 | 0.99 | 99 | 1017.8 |
| 20260831081444 | 70 | 281 | 2.0 | 2.0 | 0.00 | 0.99 | 0.99 | 99 | 1017.7 |
| 20260831080941 | 70 | 281 | 2.0 | 2.0 | 0.00 | 0.99 | 0.99 | 99 | 1017.7 |
| 20260831080440 | 70 | 281 | 2.0 | 2.0 | 0.00 | 0.99 | 0.99 | 99 | 1017.7 |
| 20260831075936 | 70 | 281 | 2.0 | 2.0 | 0.00 | 0.99 | 0.99 | 99 | 1017.7 |
| 20260831075432 | 70 | 281 | 2.0 | 2.0 | 0.00 | 0.99 | 0.99 | 99 | 1017.8 |
| 20260831074927 | 70 | 281 | 2.0 | 2.0 | 0.00 | 0.99 | 0.99 | 99 | 1017.7 |
| 20260831074426 | 70 | 281 | 2.0 | 2.0 | 0.00 | 0.99 | 0.99 | 99 | 1017.9 |
| 20260831073921 | 69 | 257 | 2.0 | 3.0 | 0.00 | 0.99 | 0.99 | 99 | 1018.1 |
| 20260831073421 | 70 | 270 | 1.0 | 2.0 | 0.00 | 0.99 | 0.99 | 99 | 1017.9 |
| 20260831072915 | 70 | 270 | 1.0 | 2.0 | 0.00 | 0.99 | 0.99 | 99 | 1018.0 |
| 20260831072411 | 69 | 300 | 2.0 | 2.0 | 0.00 | 0.99 | 0.99 | 99 | 1017.9 |
| 20260831071908 | 70 | 270 | 1.0 | 1.0 | 0.00 | 0.99 | 0.99 | 99 | 1018.0 |
| 20260831071406 | 70 | 243 | 1.0 | 2.0 | 0.00 | 0.99 | 0.99 | 99 | 1018.0 |
| 20260831070901 | 70 | 243 | 1.0 | 2.0 | 0.00 | 0.99 | 0.99 | 99 | 1018.1 |
| 20260831070400 | 70 | 243 | 1.0 | 2.0 | 0.00 | 0.99 | 0.99 | 99 | 1017.9 |
| 20260831065859 | 70 | 251 | 1.0 | 2.0 | 0.05 | 0.99 | 0.99 | 99 | 1018.1 |
| 20260831065357 | 70 | 251 | 1.0 | 2.0 | 0.07 | 0.99 | 0.99 | 99 | 1018.2 |
| 20260831064852 | 70 | 251 | 1.0 | 2.0 | 0.09 | 0.98 | 0.98 | 99 | 1018.0 |
| 20260831064348 | 70 | 251 | 1.0 | 2.0 | 0.12 | 0.98 | 0.98 | 99 | 1018.1 |
| 20260831063843 | 70 | 251 | 1.0 | 2.0 | 0.07 | 0.97 | 0.97 | 99 | 1018.4 |
| 20260831063338 | 70 | 251 | 1.0 | 2.0 | 0.05 | 0.96 | 0.96 | 99 | 1018.7 |
| 20260831062838 | 70 | 241 | 3.0 | 3.0 | 0.05 | 0.96 | 0.96 | 99 | 1018.6 |
| 20260831062333 | 70 | 334 | 3.0 | 3.0 | 0.19 | 0.95 | 0.95 | 99 | 1018.8 |
| 20260831061832 | 70 | 334 | 3.0 | 3.0 | 1.13 | 0.95 | 0.95 | 99 | 1018.7 |
| 20260831061331 | 70 | 334 | 3.0 | 3.0 | 1.89 | 0.92 | 0.92 | 99 | 1018.6 |
| 20260831060828 | 70 | 276 | 1.0 | 2.0 | 1.18 | 0.76 | 0.76 | 99 | 1018.9 |
| 20260831060328 | 70 | 248 | 2.0 | 3.0 | 0.35 | 0.61 | 0.61 | 99 | 1018.5 |
| 20260831055827 | 70 | 315 | 0.0 | 3.0 | 0.09 | 0.56 | 0.56 | 99 | 1018.7 |
| 20260831055323 | 70 | 262 | 0.0 | 1.0 | 0.02 | 0.55 | 0.55 | 99 | 1019.1 |
| 20260831054818 | 70 | 297 | 2.0 | 2.0 | 0.02 | 0.55 | 0.55 | 99 | 1019.0 |
| 20260831054313 | 70 | 243 | 2.0 | 2.0 | 0.00 | 0.54 | 0.54 | 99 | 1019.0 |
| 20260831053812 | 70 | 255 | 1.0 | 4.0 | 0.00 | 0.54 | 0.54 | 99 | 1018.9 |
| 20260831053311 | 70 | 255 | 2.0 | 3.0 | 0.00 | 0.54 | 0.54 | 99 | 1018.7 |
| 20260831052805 | 70 | 263 | 1.0 | 2.0 | 0.00 | 0.54 | 0.54 | 99 | 1018.2 |
| 20260831052307 | 70 | 263 | 3.0 | 3.0 | 0.00 | 0.54 | 0.54 | 99 | 1018.4 |
| 20260831051803 | 69 | 249 | 1.0 | 2.0 | 0.19 | 0.54 | 0.54 | 99 | 1018.5 |
| 20260831051302 | 70 | 203 | 5.0 | 5.0 | 0.71 | 0.54 | 0.54 | 99 | 1018.5 |
| 20260831050757 | 70 | 187 | 3.0 | 5.0 | 1.13 | 0.48 | 0.48 | 99 | 1018.8 |
| 20260831050256 | 70 | 262 | 3.0 | 5.0 | 2.03 | 0.42 | 0.42 | 99 | 1018.4 |
| 20260831045751 | 72 | 213 | 2.0 | 3.0 | 1.63 | 0.29 | 0.29 | 99 | 1018.8 |
| 20260831045251 | 73 | 246 | 0.0 | 3.0 | 0.50 | 0.09 | 0.09 | 99 | 1018.9 |
| 20260831044745 | 73 | 260 | 2.0 | 2.0 | 0.07 | 0.02 | 0.02 | 99 | 1018.7 |
| 20260831044240 | 73 | 265 | 2.0 | 2.0 | 0.00 | 0.00 | 0.00 | 99 | 1018.5 |
| 20260831043736 | 73 | 270 | 1.0 | 2.0 | 0.02 | 0.00 | 0.00 | 99 | 1018.4 |
| 20260831043231 | 73 | 263 | 1.0 | 2.0 | 0.02 | 0.00 | 0.00 | 99 | 1018.1 |
| 20260831042730 | 73 | 262 | 1.0 | 2.0 | 0.00 | 0.00 | 0.00 | 99 | 1018.2 |
| 20260831042225 | 73 | 276 | 1.0 | 2.0 | 0.00 | 0.00 | 0.00 | 99 | 1018.0 |
| 20260831041721 | 73 | 259 | 2.0 | 2.0 | 0.00 | 0.00 | 0.00 | 99 | 1018.1 |
| 20260831041220 | 73 | 259 | 2.0 | 2.0 | 0.00 | 0.00 | 0.00 | 99 | 1018.2 |
| 20260831040715 | 73 | 259 | 2.0 | 2.0 | 0.00 | 0.00 | 0.00 | 99 | 1018.0 |
| 20260831040214 | 73 | 270 | 1.0 | 2.0 | 0.00 | 0.00 | 0.00 | 99 | 1018.2 |
| 20260831035713 | 73 | 264 | 2.0 | 2.0 | 0.00 | 0.00 | 0.00 | 99 | 1018.4 |
| 20260831035207 | 72 | 248 | 2.0 | 2.0 | 0.00 | 0.00 | 0.00 | 99 | 1018.1 |
| 20260831034707 | 73 | 258 | 2.0 | 2.0 | 0.00 | 0.00 | 0.00 | 99 | 1018.1 |
| 20260831034202 | 73 | 258 | 2.0 | 2.0 | 0.00 | 0.00 | 0.00 | 99 | 1018.3 |
| 20260831033657 | 73 | 258 | 2.0 | 2.0 | 0.00 | 0.00 | 0.00 | 99 | 1018.4 |
| 20260831033157 | 73 | 276 | 1.0 | 2.0 | 0.00 | 0.00 | 0.00 | 99 | 1018.3 |
| 20260831032652 | 73 | 276 | 1.0 | 2.0 | 0.00 | 0.00 | 0.00 | 99 | 1018.3 |
| 20260831032148 | 73 | 276 | 1.0 | 2.0 | 0.00 | 0.00 | 0.00 | 99 | 1018.2 |
| 20260831031648 | 73 | 276 | 1.0 | 2.0 | 0.00 | 0.00 | 0.00 | 99 | 1018.3 |
| 20260831031147 | 73 | 276 | 1.0 | 2.0 | 0.00 | 0.00 | 0.00 | 99 | 1018.5 |
| 20260831030646 | 73 | 276 | 1.0 | 2.0 | 0.00 | 0.00 | 0.00 | 99 | 1018.4 |
| 20260831030145 | 73 | 255 | 1.0 | 1.0 | 0.00 | 0.00 | 0.00 | 99 | 1018.4 |
| 20260831025644 | 73 | 255 | 0.0 | 2.0 | 0.00 | 0.00 | 0.00 | 99 | 1018.4 |
| 20260831025139 | 73 | 270 | 1.0 | 2.0 | 0.00 | 0.00 | 0.00 | 99 | 1018.5 |
| 20260831024635 | 73 | 180 | 1.0 | 1.0 | 0.00 | 0.00 | 0.00 | 99 | 1018.4 |
| 20260831024134 | 73 | 249 | 1.0 | 2.0 | 0.00 | 0.00 | 0.00 | 99 | 1018.5 |
| 20260831023632 | 73 | 246 | 3.0 | 3.0 | 0.00 | 0.00 | 0.00 | 99 | 1018.6 |
| 20260831023131 | 73 | 270 | 1.0 | 2.0 | 0.00 | 0.00 | 0.00 | 99 | 1018.6 |
| 20260831022626 | 73 | 221 | 2.0 | 2.0 | 0.00 | 0.00 | 0.00 | 99 | 1018.5 |
| 20260831022121 | 73 | 232 | 3.0 | 3.0 | 0.00 | 0.00 | 0.00 | 99 | 1018.6 |
| 20260831021620 | 73 | 258 | 2.0 | 2.0 | 0.00 | 0.00 | 0.00 | 99 | 1018.7 |
| 20260831021116 | 73 | 246 | 0.0 | 1.0 | 0.00 | 0.00 | 0.00 | 99 | 1018.5 |
| 20260831020612 | 73 | 254 | 2.0 | 2.0 | 0.00 | 0.00 | 0.00 | 99 | 1018.7 |
| 20260831020106 | 73 | 246 | 1.0 | 1.0 | 0.00 | 0.00 | 0.00 | 99 | 1018.7 |
| 20260831015602 | 73 | 246 | 1.0 | 1.0 | 0.00 | 0.00 | 0.00 | 99 | 1018.8 |
| 20260831015057 | 73 | 255 | 1.0 | 1.0 | 0.00 | 0.00 | 0.00 | 99 | 1018.8 |
| 20260831014552 | 72 | 270 | 1.0 | 2.0 | 0.00 | 0.00 | 0.00 | 99 | 1018.9 |
| 20260831014047 | 72 | 270 | 1.0 | 2.0 | 0.00 | 0.00 | 0.00 | 99 | 1019.0 |
| 20260831013543 | 73 | 265 | 2.0 | 2.0 | 0.00 | 0.00 | 0.00 | 99 | 1018.8 |
| 20260831013037 | 72 | 255 | 1.0 | 2.0 | 0.00 | 0.00 | 0.00 | 98 | 1018.8 |
| 20260831012532 | 72 | 255 | 1.0 | 2.0 | 0.00 | 0.00 | 0.00 | 98 | 1018.9 |
| 20260831012027 | 74 | 203 | 0.0 | 1.0 | 0.00 | 0.00 | 0.00 | 97 | 1018.7 |
| 20260831011526 | 74 | 203 | 0.0 | 1.0 | 0.00 | 0.00 | 0.00 | 97 | 1018.8 |
| 20260831011022 | 74 | 203 | 0.0 | 1.0 | 0.00 | 0.00 | 0.00 | 97 | 1018.5 |
| 20260831010522 | 74 | 203 | 0.0 | 1.0 | 0.00 | 0.00 | 0.00 | 97 | 1018.8 |
| 20260831010019 | 74 | 203 | 0.0 | 1.0 | 0.00 | 0.00 | 0.00 | 97 | 1018.7 |
| 20260831005519 | 74 | 203 | 0.0 | 1.0 | 0.00 | 0.00 | 0.00 | 97 | 1019.0 |
| 20260831005019 | 74 | 246 | 0.0 | 1.0 | 0.00 | 0.00 | 0.00 | 97 | 1019.0 |
| 20260831004515 | 75 | 246 | 2.0 | 2.0 | 0.00 | 0.00 | 0.00 | 94 | 1018.8 |
| 20260831004010 | 75 | 246 | 2.0 | 2.0 | 0.00 | 0.00 | 0.00 | 94 | 1018.6 |
| 20260831003507 | 75 | 246 | 2.0 | 2.0 | 0.00 | 0.00 | 0.00 | 94 | 1018.6 |
| 20260831003001 | 75 | 246 | 2.0 | 2.0 | 0.00 | 0.00 | 0.00 | 94 | 1018.5 |
| 20260831002500 | 75 | 246 | 2.0 | 2.0 | 0.00 | 0.00 | 0.00 | 94 | 1018.4 |
| 20260831001955 | 75 | 246 | 2.0 | 2.0 | 0.00 | 0.00 | 0.00 | 94 | 1018.4 |
| 20260831001450 | 75 | 246 | 2.0 | 2.0 | 0.00 | 0.00 | 0.00 | 94 | 1018.4 |
| 20260831000947 | 76 | 255 | 0.0 | 1.0 | 0.00 | 0.00 | 0.00 | 94 | 1018.2 |
| 20260831000443 | 76 | 217 | 0.0 | 2.0 | 0.00 | 0.00 | 0.00 | 94 | 1018.4 |
| 20260830235941 | 76 | 285 | 2.0 | 2.0 | 0.00 | 0.00 | 0.00 | 93 | 1018.3 |
| 20260830235436 | 76 | 251 | 2.0 | 2.0 | 0.00 | 0.00 | 0.00 | 93 | 1018.1 |
| 20260830234931 | 76 | 253 | 2.0 | 2.0 | 0.00 | 0.00 | 0.00 | 92 | 1018.5 |
| 20260830234427 | 77 | 262 | 1.0 | 2.0 | 0.00 | 0.00 | 0.00 | 92 | 1018.2 |
| 20260830233922 | 77 | 255 | 0.0 | 2.0 | 0.00 | 0.00 | 0.00 | 92 | 1018.1 |
| 20260830233418 | 77 | 262 | 1.0 | 1.0 | 0.00 | 0.00 | 0.00 | 91 | 1018.0 |
| 20260830232913 | 77 | 234 | 1.0 | 3.0 | 0.00 | 0.00 | 0.00 | 90 | 1018.2 |
| 20260830232409 | 77 | 206 | 2.0 | 2.0 | 0.00 | 0.00 | 0.00 | 90 | 1018.3 |
| 20260830231906 | 78 | 99 | 0.0 | 3.0 | 0.00 | 0.00 | 0.00 | 90 | 1018.3 |
| 20260830231400 | 78 | 154 | 1.0 | 2.0 | 0.00 | 0.00 | 0.00 | 90 | 1018.1 |
| 20260830230900 | 78 | 229 | 0.0 | 2.0 | 0.00 | 0.00 | 0.00 | 89 | 1018.2 |
| 20260830230355 | 78 | 194 | 0.0 | 0.0 | 0.00 | 0.00 | 0.00 | 89 | 1018.3 |
| 20260830225854 | 78 | 131 | 0.0 | 4.0 | 0.00 | 0.00 | 0.00 | 88 | 1018.1 |
| 20260830225350 | 78 | 173 | 1.0 | 2.0 | 0.00 | 0.00 | 0.00 | 88 | 1018.1 |
| 20260830224844 | 78 | 250 | 3.0 | 3.0 | 0.00 | 0.00 | 0.00 | 88 | 1018.1 |
| 20260830224338 | 79 | 191 | 2.0 | 4.0 | 0.00 | 0.00 | 0.00 | 88 | 1018.1 |
| 20260830223835 | 79 | 174 | 0.0 | 3.0 | 0.00 | 0.00 | 0.00 | 87 | 1018.1 |
| 20260830223331 | 79 | 209 | 2.0 | 5.0 | 0.00 | 0.00 | 0.00 | 86 | 1018.0 |
| 20260830222831 | 79 | 239 | 4.0 | 7.0 | 0.00 | 0.00 | 0.00 | 86 | 1018.1 |
| 20260830222326 | 80 | 233 | 2.0 | 3.0 | 0.00 | 0.00 | 0.00 | 85 | 1017.9 |
| 20260830221821 | 80 | 270 | 3.0 | 3.0 | 0.00 | 0.00 | 0.00 | 85 | 1018.0 |
| 20260830221318 | 80 | 236 | 2.0 | 5.0 | 0.00 | 0.00 | 0.00 | 84 | 1017.9 |
| 20260830220818 | 80 | 142 | 2.0 | 3.0 | 0.00 | 0.00 | 0.00 | 84 | 1017.9 |
| 20260830220318 | 81 | 123 | 0.0 | 3.0 | 0.00 | 0.00 | 0.00 | 83 | 1017.9 |
| 20260830215815 | 81 | 261 | 2.0 | 3.0 | 0.00 | 0.00 | 0.00 | 80 | 1017.7 |
| 20260830215310 | 81 | 260 | 2.0 | 3.0 | 0.00 | 0.00 | 0.00 | 80 | 1017.7 |
| 20260830214806 | 81 | 254 | 2.0 | 3.0 | 0.00 | 0.00 | 0.00 | 82 | 1017.5 |
| 20260830214301 | 81 | 252 | 2.0 | 2.0 | 0.00 | 0.00 | 0.00 | 82 | 1017.8 |
| 20260830213800 | 81 | 245 | 2.0 | 2.0 | 0.00 | 0.00 | 0.00 | 79 | 1018.0 |
| 20260830213255 | 81 | 245 | 2.0 | 2.0 | 0.00 | 0.00 | 0.00 | 82 | 1017.8 |
| 20260830212751 | 81 | 257 | 2.0 | 3.0 | 0.00 | 0.00 | 0.00 | 79 | 1017.9 |
| 20260830212247 | 81 | 255 | 3.0 | 3.0 | 0.00 | 0.00 | 0.00 | 80 | 1017.9 |
| 20260830211746 | 81 | 252 | 2.0 | 2.0 | 0.00 | 0.00 | 0.00 | 79 | 1017.9 |
| 20260830211245 | 81 | 257 | 2.0 | 2.0 | 0.00 | 0.00 | 0.00 | 80 | 1017.8 |
| 20260830210741 | 81 | 248 | 2.0 | 3.0 | 0.00 | 0.00 | 0.00 | 78 | 1018.1 |
| 20260830210240 | 81 | 225 | 3.0 | 4.0 | 0.00 | 0.00 | 0.00 | 77 | 1018.0 |
| 20260830205738 | 82 | 262 | 2.0 | 5.0 | 0.00 | 0.00 | 0.00 | 77 | 1018.0 |
| 20260830205233 | 82 | 247 | 3.0 | 3.0 | 0.00 | 0.00 | 0.00 | 77 | 1017.9 |
| 20260830204728 | 82 | 262 | 3.0 | 3.0 | 0.00 | 0.00 | 0.00 | 80 | 1018.1 |
| 20260830204227 | 82 | 215 | 4.0 | 4.0 | 0.00 | 0.00 | 0.00 | 76 | 1018.0 |
| 20260830203723 | 82 | 240 | 3.0 | 6.0 | 0.00 | 0.00 | 0.00 | 77 | 1018.0 |
| 20260830203219 | 82 | 270 | 3.0 | 5.0 | 0.00 | 0.00 | 0.00 | 74 | 1018.1 |
| 20260830202718 | 82 | 231 | 2.0 | 4.0 | 0.00 | 0.00 | 0.00 | 73 | 1018.2 |
| 20260830202214 | 82 | 234 | 4.0 | 5.0 | 0.00 | 0.00 | 0.00 | 73 | 1018.3 |
| 20260830201713 | 83 | 233 | 3.0 | 3.0 | 0.00 | 0.00 | 0.00 | 73 | 1018.2 |
| 20260830201208 | 84 | 257 | 5.0 | 6.0 | 0.00 | 0.00 | 0.00 | 71 | 1018.2 |
| 20260830200703 | 86 | 243 | 3.0 | 4.0 | 0.00 | 0.00 | 0.00 | 69 | 1018.3 |
| 20260830200203 | 85 | 225 | 4.0 | 5.0 | 0.00 | 0.00 | 0.00 | 69 | 1018.3 |
| 20260830195658 | 85 | 180 | 0.0 | 5.0 | 0.00 | 0.00 | 0.00 | 70 | 1018.3 |
| 20260830195156 | 85 | 244 | 3.0 | 7.0 | 0.00 | 0.00 | 0.00 | 69 | 1018.5 |
| 20260830194655 | 85 | 260 | 4.0 | 4.0 | 0.00 | 0.00 | 0.00 | 69 | 1018.6 |
| 20260830194155 | 86 | 278 | 2.0 | 5.0 | 0.00 | 0.00 | 0.00 | 68 | 1018.8 |
| 20260830193650 | 85 | 237 | 2.0 | 5.0 | 0.00 | 0.00 | 0.00 | 69 | 1018.7 |
| 20260830193150 | 86 | 120 | 2.0 | 3.0 | 0.00 | 0.00 | 0.00 | 68 | 1018.7 |
| 20260830192646 | 85 | 195 | 2.0 | 6.0 | 0.00 | 0.00 | 0.00 | 69 | 1018.8 |
| 20260830192141 | 83 | 265 | 2.0 | 3.0 | 0.00 | 0.00 | 0.00 | 69 | 1018.7 |
| 20260830191637 | 84 | 324 | 0.0 | 6.0 | 0.00 | 0.00 | 0.00 | 68 | 1018.6 |
| 20260830191131 | 86 | 257 | 4.0 | 6.0 | 0.00 | 0.00 | 0.00 | 69 | 1019.0 |
| 20260830190626 | 84 | 209 | 2.0 | 5.0 | 0.00 | 0.00 | 0.00 | 69 | 1018.7 |
| 20260830190121 | 85 | 121 | 2.0 | 4.0 | 0.00 | 0.00 | 0.00 | 68 | 1019.1 |
| 20260830185614 | 86 | 250 | 4.0 | 5.0 | 0.00 | 0.00 | 0.00 | 67 | 1019.0 |
| 20260830185111 | 85 | 148 | 0.0 | 5.0 | 0.00 | 0.00 | 0.00 | 66 | 1019.0 |
| 20260830184609 | 86 | 276 | 2.0 | 5.0 | 0.00 | 0.00 | 0.00 | 67 | 1019.1 |
| 20260830184104 | 85 | 264 | 5.0 | 5.0 | 0.00 | 0.00 | 0.00 | 69 | 1019.3 |
| 20260830183559 | 85 | 265 | 4.0 | 5.0 | 0.00 | 0.00 | 0.00 | 71 | 1019.5 |
| 20260830183055 | 84 | 237 | 3.0 | 7.0 | 0.00 | 0.00 | 0.00 | 69 | 1019.7 |
| 20260830182549 | 85 | 255 | 5.0 | 5.0 | 0.00 | 0.00 | 0.00 | 65 | 1019.5 |
| 20260830182046 | 85 | 243 | 4.0 | 7.0 | 0.00 | 0.00 | 0.00 | 67 | 1019.5 |